sensor_id;sensor_type;location;lat;lon;timestamp;pressure;altitude;pressure_sealevel;temperature;humidity
3122;BME280;1571;52.524;14.104;2023-12-22T00:00:23;97831.53;;;4.34;90.05
3122;BME280;1571;52.524;14.104;2023-12-22T00:02:51;97821.56;;;4.49;88.94
3122;BME280;1571;52.524;14.104;2023-12-22T00:05:19;97833.72;;;4.50;88.44
3122;BME280;1571;52.524;14.104;2023-12-22T00:07:47;97809.13;;;4.51;88.16
3122;BME280;1571;52.524;14.104;2023-12-22T00:10:16;97815.31;;;4.50;87.86
3122;BME280;1571;52.524;14.104;2023-12-22T00:12:45;97804.81;;;4.50;87.04
3122;BME280;1571;52.524;14.104;2023-12-22T00:15:14;97825.44;;;4.54;86.49
3122;BME280;1571;52.524;14.104;2023-12-22T00:17:43;97820.47;;;4.51;85.81
3122;BME280;1571;52.524;14.104;2023-12-22T00:20:12;97811.03;;;4.49;85.33
3122;BME280;1571;52.524;14.104;2023-12-22T00:22:41;97834.94;;;4.46;85.06
3122;BME280;1571;52.524;14.104;2023-12-22T00:25:10;97837.00;;;4.42;85.28
3122;BME280;1571;52.524;14.104;2023-12-22T00:27:39;97833.97;;;4.47;84.98
3122;BME280;1571;52.524;14.104;2023-12-22T00:30:08;97825.41;;;4.45;84.57
3122;BME280;1571;52.524;14.104;2023-12-22T00:32:39;97839.75;;;4.41;84.28
3122;BME280;1571;52.524;14.104;2023-12-22T00:35:07;97839.75;;;4.41;84.30
3122;BME280;1571;52.524;14.104;2023-12-22T00:37:36;97843.03;;;4.33;83.40
3122;BME280;1571;52.524;14.104;2023-12-22T00:40:05;97866.44;;;4.25;83.62
3122;BME280;1571;52.524;14.104;2023-12-22T00:42:35;97865.63;;;4.24;83.27
3122;BME280;1571;52.524;14.104;2023-12-22T00:45:04;97883.28;;;4.22;82.95
3122;BME280;1571;52.524;14.104;2023-12-22T00:47:32;97874.69;;;4.20;82.38
3122;BME280;1571;52.524;14.104;2023-12-22T00:50:04;97886.88;;;4.21;82.01
3122;BME280;1571;52.524;14.104;2023-12-22T00:52:33;97884.50;;;4.18;81.17
3122;BME280;1571;52.524;14.104;2023-12-22T00:55:01;97897.97;;;4.25;80.65
3122;BME280;1571;52.524;14.104;2023-12-22T00:57:29;97889.38;;;4.23;80.57
3122;BME280;1571;52.524;14.104;2023-12-22T00:59:58;97899.03;;;4.22;79.81
3122;BME280;1571;52.524;14.104;2023-12-22T01:02:26;97887.78;;;4.31;78.78
3122;BME280;1571;52.524;14.104;2023-12-22T01:04:54;97883.25;;;4.33;78.33
3122;BME280;1571;52.524;14.104;2023-12-22T01:07:24;97877.00;;;4.34;77.42
3122;BME280;1571;52.524;14.104;2023-12-22T01:09:53;97895.28;;;4.36;76.86
3122;BME280;1571;52.524;14.104;2023-12-22T01:12:21;97904.69;;;4.38;77.19
3122;BME280;1571;52.524;14.104;2023-12-22T01:14:50;97905.22;;;4.32;76.52
3122;BME280;1571;52.524;14.104;2023-12-22T01:17:19;97888.72;;;4.42;76.06
3122;BME280;1571;52.524;14.104;2023-12-22T01:19:47;97902.28;;;4.47;75.88
3122;BME280;1571;52.524;14.104;2023-12-22T01:22:15;97911.88;;;4.36;76.16
3122;BME280;1571;52.524;14.104;2023-12-22T01:24:45;97898.03;;;4.34;76.10
3122;BME280;1571;52.524;14.104;2023-12-22T01:27:13;97918.47;;;4.31;76.46
3122;BME280;1571;52.524;14.104;2023-12-22T01:29:42;97907.13;;;4.30;76.20
3122;BME280;1571;52.524;14.104;2023-12-22T01:32:10;97928.50;;;4.37;75.56
3122;BME280;1571;52.524;14.104;2023-12-22T01:34:38;97923.09;;;4.38;75.43
3122;BME280;1571;52.524;14.104;2023-12-22T01:37:09;97921.56;;;4.36;75.61
3122;BME280;1571;52.524;14.104;2023-12-22T01:39:37;97952.50;;;4.32;75.82
3122;BME280;1571;52.524;14.104;2023-12-22T01:42:06;97934.56;;;4.37;74.88
3122;BME280;1571;52.524;14.104;2023-12-22T01:44:35;97924.97;;;4.48;74.49
3122;BME280;1571;52.524;14.104;2023-12-22T01:47:04;97919.47;;;4.51;74.30
3122;BME280;1571;52.524;14.104;2023-12-22T01:49:32;97928.44;;;4.48;75.04
3122;BME280;1571;52.524;14.104;2023-12-22T01:52:01;97926.63;;;4.49;75.08
3122;BME280;1571;52.524;14.104;2023-12-22T01:54:29;97940.50;;;4.51;75.27
3122;BME280;1571;52.524;14.104;2023-12-22T01:56:58;97936.44;;;4.47;75.86
3122;BME280;1571;52.524;14.104;2023-12-22T01:59:28;97956.75;;;4.45;75.59
3122;BME280;1571;52.524;14.104;2023-12-22T02:02:01;97928.97;;;4.31;76.24
3122;BME280;1571;52.524;14.104;2023-12-22T02:04:30;97944.47;;;4.34;76.54
3122;BME280;1571;52.524;14.104;2023-12-22T02:07:01;97960.59;;;4.29;76.97
3122;BME280;1571;52.524;14.104;2023-12-22T02:09:29;97964.31;;;4.27;77.77
3122;BME280;1571;52.524;14.104;2023-12-22T02:11:58;97981.16;;;4.24;78.29
3122;BME280;1571;52.524;14.104;2023-12-22T02:14:28;97968.53;;;4.18;79.03
3122;BME280;1571;52.524;14.104;2023-12-22T02:17:02;97989.31;;;4.10;79.67
3122;BME280;1571;52.524;14.104;2023-12-22T02:19:41;97980.47;;;4.11;80.31
3122;BME280;1571;52.524;14.104;2023-12-22T02:22:11;97985.97;;;4.08;80.46
3122;BME280;1571;52.524;14.104;2023-12-22T02:24:41;97995.28;;;4.01;80.83
3122;BME280;1571;52.524;14.104;2023-12-22T02:27:15;97997.22;;;3.99;81.42
3122;BME280;1571;52.524;14.104;2023-12-22T02:29:48;97987.19;;;3.92;81.55
3122;BME280;1571;52.524;14.104;2023-12-22T02:32:22;97988.75;;;3.95;82.04
3122;BME280;1571;52.524;14.104;2023-12-22T02:34:52;97996.50;;;3.85;82.08
3122;BME280;1571;52.524;14.104;2023-12-22T02:37:22;97996.97;;;3.90;82.16
3122;BME280;1571;52.524;14.104;2023-12-22T02:39:52;98021.78;;;3.86;82.59
3122;BME280;1571;52.524;14.104;2023-12-22T02:42:22;98010.94;;;3.80;82.57
3122;BME280;1571;52.524;14.104;2023-12-22T02:44:57;98019.63;;;3.80;82.47
3122;BME280;1571;52.524;14.104;2023-12-22T02:47:26;98022.88;;;3.84;82.44
3122;BME280;1571;52.524;14.104;2023-12-22T02:49:55;98019.41;;;3.83;82.41
3122;BME280;1571;52.524;14.104;2023-12-22T02:52:24;98011.75;;;3.80;82.25
3122;BME280;1571;52.524;14.104;2023-12-22T02:54:53;98020.84;;;3.76;82.59
3122;BME280;1571;52.524;14.104;2023-12-22T02:57:22;98008.78;;;3.73;82.80
3122;BME280;1571;52.524;14.104;2023-12-22T02:59:50;98008.31;;;3.80;82.38
3122;BME280;1571;52.524;14.104;2023-12-22T03:02:18;98021.19;;;3.83;82.32
3122;BME280;1571;52.524;14.104;2023-12-22T03:04:47;98041.97;;;3.74;82.71
3122;BME280;1571;52.524;14.104;2023-12-22T03:07:15;98026.78;;;3.78;82.72
3122;BME280;1571;52.524;14.104;2023-12-22T03:09:44;98029.41;;;3.78;82.80
3122;BME280;1571;52.524;14.104;2023-12-22T03:12:13;98036.72;;;3.74;82.68
3122;BME280;1571;52.524;14.104;2023-12-22T03:14:42;98027.28;;;3.72;83.26
3122;BME280;1571;52.524;14.104;2023-12-22T03:17:10;98031.09;;;3.79;82.98
3122;BME280;1571;52.524;14.104;2023-12-22T03:19:39;98022.16;;;3.82;83.10
3122;BME280;1571;52.524;14.104;2023-12-22T03:22:07;98035.16;;;3.83;82.65
3122;BME280;1571;52.524;14.104;2023-12-22T03:24:35;98014.88;;;3.85;82.78
3122;BME280;1571;52.524;14.104;2023-12-22T03:27:05;98013.66;;;3.89;82.89
3122;BME280;1571;52.524;14.104;2023-12-22T03:29:35;98020.50;;;3.81;82.91
3122;BME280;1571;52.524;14.104;2023-12-22T03:32:04;98007.47;;;3.79;83.24
3122;BME280;1571;52.524;14.104;2023-12-22T03:34:32;98030.63;;;3.74;83.29
3122;BME280;1571;52.524;14.104;2023-12-22T03:37:01;98023.94;;;3.70;83.33
3122;BME280;1571;52.524;14.104;2023-12-22T03:39:29;98033.97;;;3.76;83.31
3122;BME280;1571;52.524;14.104;2023-12-22T03:41:57;98030.47;;;3.64;83.50
3122;BME280;1571;52.524;14.104;2023-12-22T03:44:26;98034.19;;;3.62;83.93
3122;BME280;1571;52.524;14.104;2023-12-22T03:46:56;98024.53;;;3.73;83.49
3122;BME280;1571;52.524;14.104;2023-12-22T03:49:24;98022.88;;;3.61;83.62
3122;BME280;1571;52.524;14.104;2023-12-22T03:51:53;98021.91;;;3.62;83.13
3122;BME280;1571;52.524;14.104;2023-12-22T03:54:21;98020.97;;;3.63;83.07
3122;BME280;1571;52.524;14.104;2023-12-22T03:56:49;98021.69;;;3.65;83.04
3122;BME280;1571;52.524;14.104;2023-12-22T03:59:17;98020.34;;;3.71;83.17
3122;BME280;1571;52.524;14.104;2023-12-22T04:01:50;98025.84;;;3.68;83.12
3122;BME280;1571;52.524;14.104;2023-12-22T04:04:21;98010.56;;;3.62;83.16
3122;BME280;1571;52.524;14.104;2023-12-22T04:06:50;98023.09;;;3.47;83.49
3122;BME280;1571;52.524;14.104;2023-12-22T04:09:18;98029.75;;;3.51;83.53
3122;BME280;1571;52.524;14.104;2023-12-22T04:11:47;98024.66;;;3.61;83.35
3122;BME280;1571;52.524;14.104;2023-12-22T04:14:15;98008.06;;;3.49;83.84
3122;BME280;1571;52.524;14.104;2023-12-22T04:16:46;98024.66;;;3.49;84.29
3122;BME280;1571;52.524;14.104;2023-12-22T04:19:14;98018.78;;;3.46;84.58
3122;BME280;1571;52.524;14.104;2023-12-22T04:21:44;98011.53;;;3.49;84.95
3122;BME280;1571;52.524;14.104;2023-12-22T04:24:13;98017.97;;;3.57;84.83
3122;BME280;1571;52.524;14.104;2023-12-22T04:26:41;98008.66;;;3.52;85.14
3122;BME280;1571;52.524;14.104;2023-12-22T04:29:09;98015.09;;;3.48;85.34
3122;BME280;1571;52.524;14.104;2023-12-22T04:31:38;98006.03;;;3.52;85.34
3122;BME280;1571;52.524;14.104;2023-12-22T04:34:06;98012.97;;;3.53;85.47
3122;BME280;1571;52.524;14.104;2023-12-22T04:36:35;98008.41;;;3.55;85.54
3122;BME280;1571;52.524;14.104;2023-12-22T04:39:04;98008.41;;;3.55;85.28
3122;BME280;1571;52.524;14.104;2023-12-22T04:41:33;98009.13;;;3.58;85.30
3122;BME280;1571;52.524;14.104;2023-12-22T04:44:01;98012.72;;;3.57;85.26
3122;BME280;1571;52.524;14.104;2023-12-22T04:46:30;98013.56;;;3.57;85.49
3122;BME280;1571;52.524;14.104;2023-12-22T04:48:58;98023.69;;;3.62;85.72
3122;BME280;1571;52.524;14.104;2023-12-22T04:51:29;98019.25;;;3.51;86.24
3122;BME280;1571;52.524;14.104;2023-12-22T04:53:57;98017.97;;;3.57;86.55
3122;BME280;1571;52.524;14.104;2023-12-22T04:56:27;98002.47;;;3.53;86.54
3122;BME280;1571;52.524;14.104;2023-12-22T04:58:55;98000.31;;;3.47;87.22
3122;BME280;1571;52.524;14.104;2023-12-22T05:01:23;97999.50;;;3.47;87.05
3122;BME280;1571;52.524;14.104;2023-12-22T05:03:52;97994.00;;;3.50;87.25
3122;BME280;1571;52.524;14.104;2023-12-22T05:06:21;98006.50;;;3.46;87.08
3122;BME280;1571;52.524;14.104;2023-12-22T05:08:49;97992.19;;;3.50;87.04
3122;BME280;1571;52.524;14.104;2023-12-22T05:11:17;98012.97;;;3.53;87.47
3122;BME280;1571;52.524;14.104;2023-12-22T05:13:47;98009.00;;;3.48;87.39
3122;BME280;1571;52.524;14.104;2023-12-22T05:16:15;97997.34;;;3.41;87.47
3122;BME280;1571;52.524;14.104;2023-12-22T05:18:44;97992.44;;;3.36;87.29
3122;BME280;1571;52.524;14.104;2023-12-22T05:21:12;97997.44;;;3.50;86.71
3122;BME280;1571;52.524;14.104;2023-12-22T05:23:42;97981.72;;;3.50;85.90
3122;BME280;1571;52.524;14.104;2023-12-22T05:26:16;97957.16;;;3.51;85.95
3122;BME280;1571;52.524;14.104;2023-12-22T05:28:44;97966.34;;;3.57;84.98
3122;BME280;1571;52.524;14.104;2023-12-22T05:31:14;97980.28;;;3.46;84.95
3122;BME280;1571;52.524;14.104;2023-12-22T05:33:42;98003.66;;;3.38;84.65
3122;BME280;1571;52.524;14.104;2023-12-22T05:36:11;97985.03;;;3.41;84.83
3122;BME280;1571;52.524;14.104;2023-12-22T05:38:39;97993.88;;;3.40;84.52
3122;BME280;1571;52.524;14.104;2023-12-22T05:41:07;97997.53;;;3.38;84.98
3122;BME280;1571;52.524;14.104;2023-12-22T05:43:36;98018.16;;;3.31;85.45
3122;BME280;1571;52.524;14.104;2023-12-22T05:46:04;98017.59;;;3.39;85.75
3122;BME280;1571;52.524;14.104;2023-12-22T05:48:35;98014.13;;;3.38;85.98
3122;BME280;1571;52.524;14.104;2023-12-22T05:51:03;98015.91;;;3.38;86.11
3122;BME280;1571;52.524;14.104;2023-12-22T05:53:34;98024.03;;;3.34;86.17
3122;BME280;1571;52.524;14.104;2023-12-22T05:56:03;98017.94;;;3.34;86.44
3122;BME280;1571;52.524;14.104;2023-12-22T05:58:31;98021.75;;;3.30;86.27
3122;BME280;1571;52.524;14.104;2023-12-22T06:01:00;98029.88;;;3.38;86.32
3122;BME280;1571;52.524;14.104;2023-12-22T06:03:28;98021.84;;;3.28;86.44
3122;BME280;1571;52.524;14.104;2023-12-22T06:05:58;98046.97;;;3.20;86.56
3122;BME280;1571;52.524;14.104;2023-12-22T06:08:31;98021.38;;;3.23;86.31
3122;BME280;1571;52.524;14.104;2023-12-22T06:10:59;98037.81;;;3.25;86.16
3122;BME280;1571;52.524;14.104;2023-12-22T06:13:27;98025.53;;;3.26;85.95
3122;BME280;1571;52.524;14.104;2023-12-22T06:15:56;98036.03;;;3.26;86.10
3122;BME280;1571;52.524;14.104;2023-12-22T06:18:24;98045.69;;;3.25;85.97
3122;BME280;1571;52.524;14.104;2023-12-22T06:20:52;98052.59;;;3.26;85.63
3122;BME280;1571;52.524;14.104;2023-12-22T06:23:23;98070.16;;;3.37;84.29
3122;BME280;1571;52.524;14.104;2023-12-22T06:25:51;98040.38;;;3.38;83.73
3122;BME280;1571;52.524;14.104;2023-12-22T06:28:20;98041.66;;;3.44;82.48
3122;BME280;1571;52.524;14.104;2023-12-22T06:30:48;98065.28;;;3.44;82.00
3122;BME280;1571;52.524;14.104;2023-12-22T06:33:16;98054.91;;;3.42;82.06
3122;BME280;1571;52.524;14.104;2023-12-22T06:35:45;98055.63;;;3.44;82.32
3122;BME280;1571;52.524;14.104;2023-12-22T06:38:13;98048.47;;;3.46;83.04
3122;BME280;1571;52.524;14.104;2023-12-22T06:40:42;98052.03;;;3.34;83.50
3122;BME280;1571;52.524;14.104;2023-12-22T06:43:13;98054.97;;;3.18;85.27
3122;BME280;1571;52.524;14.104;2023-12-22T06:45:41;98051.00;;;3.12;86.31
3122;BME280;1571;52.524;14.104;2023-12-22T06:48:10;98080.56;;;3.15;87.07
3122;BME280;1571;52.524;14.104;2023-12-22T06:50:38;98071.53;;;3.19;87.45
3122;BME280;1571;52.524;14.104;2023-12-22T06:53:07;98075.78;;;3.08;86.94
3122;BME280;1571;52.524;14.104;2023-12-22T06:55:49;98085.34;;;3.09;86.98
3122;BME280;1571;52.524;14.104;2023-12-22T06:58:17;98059.75;;;3.13;86.34
3122;BME280;1571;52.524;14.104;2023-12-22T07:00:48;98057.94;;;3.13;85.85
3122;BME280;1571;52.524;14.104;2023-12-22T07:03:17;98079.28;;;3.20;85.42
3122;BME280;1571;52.524;14.104;2023-12-22T07:05:46;98055.81;;;3.19;84.89
3122;BME280;1571;52.524;14.104;2023-12-22T07:08:15;98075.38;;;3.26;84.75
3122;BME280;1571;52.524;14.104;2023-12-22T07:10:43;98066.53;;;3.16;86.04
3122;BME280;1571;52.524;14.104;2023-12-22T07:13:14;98135.13;;;2.61;87.96
3122;BME280;1571;52.524;14.104;2023-12-22T07:15:44;98095.03;;;1.85;92.03
3122;BME280;1571;52.524;14.104;2023-12-22T07:18:12;98121.00;;;1.63;95.54
3122;BME280;1571;52.524;14.104;2023-12-22T07:20:41;98127.69;;;1.67;97.87
3122;BME280;1571;52.524;14.104;2023-12-22T07:23:09;98115.34;;;1.95;98.97
3122;BME280;1571;52.524;14.104;2023-12-22T07:25:38;98086.41;;;2.09;99.08
3122;BME280;1571;52.524;14.104;2023-12-22T07:28:07;98080.34;;;2.21;98.40
3122;BME280;1571;52.524;14.104;2023-12-22T07:30:36;98075.28;;;2.31;97.87
3122;BME280;1571;52.524;14.104;2023-12-22T07:33:05;98071.81;;;2.43;96.97
3122;BME280;1571;52.524;14.104;2023-12-22T07:35:33;98078.13;;;2.52;96.49
3122;BME280;1571;52.524;14.104;2023-12-22T07:38:02;98097.72;;;2.59;96.21
3122;BME280;1571;52.524;14.104;2023-12-22T07:40:30;98128.69;;;2.65;96.11
3122;BME280;1571;52.524;14.104;2023-12-22T07:42:59;98108.06;;;2.61;96.09
3122;BME280;1571;52.524;14.104;2023-12-22T07:45:28;98114.66;;;2.66;95.95
3122;BME280;1571;52.524;14.104;2023-12-22T07:47:58;98113.53;;;2.58;95.55
3122;BME280;1571;52.524;14.104;2023-12-22T07:50:27;98125.25;;;2.65;94.45
3122;BME280;1571;52.524;14.104;2023-12-22T07:52:56;98115.59;;;2.65;93.86
3122;BME280;1571;52.524;14.104;2023-12-22T07:55:28;98114.44;;;2.69;94.11
3122;BME280;1571;52.524;14.104;2023-12-22T07:57:57;98118.22;;;2.65;93.88
3122;BME280;1571;52.524;14.104;2023-12-22T08:00:25;98122.53;;;2.66;93.38
3122;BME280;1571;52.524;14.104;2023-12-22T08:02:55;98110.88;;;2.70;93.46
3122;BME280;1571;52.524;14.104;2023-12-22T08:05:25;98106.81;;;2.66;93.01
3122;BME280;1571;52.524;14.104;2023-12-22T08:07:53;98136.03;;;2.73;92.38
3122;BME280;1571;52.524;14.104;2023-12-22T08:10:21;98133.56;;;2.83;92.08
3122;BME280;1571;52.524;14.104;2023-12-22T08:12:50;98135.03;;;2.87;91.33
3122;BME280;1571;52.524;14.104;2023-12-22T08:15:18;98129.75;;;3.00;90.71
3122;BME280;1571;52.524;14.104;2023-12-22T08:17:59;98105.56;;;3.07;90.40
3122;BME280;1571;52.524;14.104;2023-12-22T08:20:28;98118.44;;;3.10;89.97
3122;BME280;1571;52.524;14.104;2023-12-22T08:23:03;98132.50;;;3.09;89.33
3122;BME280;1571;52.524;14.104;2023-12-22T08:25:37;98120.63;;;3.17;88.43
3122;BME280;1571;52.524;14.104;2023-12-22T08:28:07;98117.66;;;3.21;88.10
3122;BME280;1571;52.524;14.104;2023-12-22T08:30:36;98106.72;;;3.27;87.64
3122;BME280;1571;52.524;14.104;2023-12-22T08:33:04;98111.53;;;3.33;86.98
3122;BME280;1571;52.524;14.104;2023-12-22T08:35:34;98141.09;;;3.36;86.27
3122;BME280;1571;52.524;14.104;2023-12-22T08:38:02;98128.84;;;3.47;85.73
3122;BME280;1571;52.524;14.104;2023-12-22T08:40:31;98134.69;;;3.51;85.37
3122;BME280;1571;52.524;14.104;2023-12-22T08:43:00;98152.84;;;3.54;84.28
3122;BME280;1571;52.524;14.104;2023-12-22T08:45:28;98146.03;;;3.51;83.75
3122;BME280;1571;52.524;14.104;2023-12-22T08:47:57;98156.97;;;3.45;83.98
3122;BME280;1571;52.524;14.104;2023-12-22T08:50:26;98158.91;;;3.54;83.95
3122;BME280;1571;52.524;14.104;2023-12-22T08:52:55;98156.19;;;3.56;83.93
3122;BME280;1571;52.524;14.104;2023-12-22T08:55:24;98158.19;;;3.52;83.11
3122;BME280;1571;52.524;14.104;2023-12-22T08:57:52;98166.28;;;3.49;83.69
3122;BME280;1571;52.524;14.104;2023-12-22T09:00:29;98163.47;;;3.64;83.64
3122;BME280;1571;52.524;14.104;2023-12-22T09:02:57;98173.69;;;3.55;82.60
3122;BME280;1571;52.524;14.104;2023-12-22T09:05:25;98174.41;;;3.58;82.68
3122;BME280;1571;52.524;14.104;2023-12-22T09:07:55;98164.06;;;3.56;82.25
3122;BME280;1571;52.524;14.104;2023-12-22T09:10:24;98160.34;;;3.59;82.12
3122;BME280;1571;52.524;14.104;2023-12-22T09:12:52;98193.97;;;3.53;81.58
3122;BME280;1571;52.524;14.104;2023-12-22T09:15:20;98188.38;;;3.58;81.16
3122;BME280;1571;52.524;14.104;2023-12-22T09:17:49;98212.03;;;3.69;81.56
3122;BME280;1571;52.524;14.104;2023-12-22T09:20:19;98226.78;;;3.59;81.82
3122;BME280;1571;52.524;14.104;2023-12-22T09:22:48;98213.50;;;3.49;81.79
3122;BME280;1571;52.524;14.104;2023-12-22T09:25:17;98218.47;;;3.41;82.07
3122;BME280;1571;52.524;14.104;2023-12-22T09:27:46;98216.28;;;3.35;82.49
3122;BME280;1571;52.524;14.104;2023-12-22T09:30:15;98231.25;;;3.46;82.42
3122;BME280;1571;52.524;14.104;2023-12-22T09:32:43;98231.19;;;3.59;82.16
3122;BME280;1571;52.524;14.104;2023-12-22T09:35:12;98237.38;;;3.58;81.78
3122;BME280;1571;52.524;14.104;2023-12-22T09:37:40;98221.38;;;3.49;81.81
3122;BME280;1571;52.524;14.104;2023-12-22T09:40:08;98226.00;;;3.46;81.71
3122;BME280;1571;52.524;14.104;2023-12-22T09:42:40;98223.28;;;3.47;81.94
3122;BME280;1571;52.524;14.104;2023-12-22T09:45:10;98220.03;;;3.44;81.98
3122;BME280;1571;52.524;14.104;2023-12-22T09:47:41;98223.13;;;3.49;80.87
3122;BME280;1571;52.524;14.104;2023-12-22T09:50:11;98225.47;;;3.53;81.35
3122;BME280;1571;52.524;14.104;2023-12-22T09:52:42;98240.47;;;3.51;81.23
3122;BME280;1571;52.524;14.104;2023-12-22T09:55:12;98245.91;;;3.48;80.99
3122;BME280;1571;52.524;14.104;2023-12-22T09:57:42;98221.03;;;3.54;80.27
3122;BME280;1571;52.524;14.104;2023-12-22T10:00:11;98238.38;;;3.68;79.90
3122;BME280;1571;52.524;14.104;2023-12-22T10:02:42;98206.16;;;3.66;78.90
3122;BME280;1571;52.524;14.104;2023-12-22T10:05:13;98242.66;;;3.69;79.19
3122;BME280;1571;52.524;14.104;2023-12-22T10:07:44;98239.66;;;3.97;78.48
3122;BME280;1571;52.524;14.104;2023-12-22T10:10:15;98238.38;;;4.03;77.80
3122;BME280;1571;52.524;14.104;2023-12-22T10:12:46;98238.59;;;4.00;77.30
3122;BME280;1571;52.524;14.104;2023-12-22T10:15:15;98229.50;;;3.93;77.43
3122;BME280;1571;52.524;14.104;2023-12-22T10:17:46;98232.50;;;4.00;77.33
3122;BME280;1571;52.524;14.104;2023-12-22T10:20:15;98244.81;;;3.99;77.16
3122;BME280;1571;52.524;14.104;2023-12-22T10:22:44;98237.75;;;4.00;76.50
3122;BME280;1571;52.524;14.104;2023-12-22T10:25:14;98253.81;;;4.19;76.59
3122;BME280;1571;52.524;14.104;2023-12-22T10:27:43;98247.84;;;4.17;76.07
3122;BME280;1571;52.524;14.104;2023-12-22T10:30:14;98243.97;;;3.99;75.95
3122;BME280;1571;52.524;14.104;2023-12-22T10:32:43;98255.69;;;4.06;76.03
3122;BME280;1571;52.524;14.104;2023-12-22T10:35:11;98236.00;;;4.11;75.52
3122;BME280;1571;52.524;14.104;2023-12-22T10:37:39;98239.44;;;4.12;74.95
3122;BME280;1571;52.524;14.104;2023-12-22T10:40:09;98263.22;;;4.10;74.86
3122;BME280;1571;52.524;14.104;2023-12-22T10:42:40;98234.00;;;4.26;75.09
3122;BME280;1571;52.524;14.104;2023-12-22T10:45:08;98258.94;;;4.32;75.05
3122;BME280;1571;52.524;14.104;2023-12-22T10:47:39;98255.97;;;4.36;74.54
3122;BME280;1571;52.524;14.104;2023-12-22T10:50:08;98248.34;;;4.33;74.18
3122;BME280;1571;52.524;14.104;2023-12-22T10:52:39;98249.63;;;4.28;73.96
3122;BME280;1571;52.524;14.104;2023-12-22T10:55:08;98249.63;;;4.28;74.04
3122;BME280;1571;52.524;14.104;2023-12-22T10:57:37;98249.31;;;4.32;74.10
3122;BME280;1571;52.524;14.104;2023-12-22T11:00:07;98245.00;;;4.43;74.30
3122;BME280;1571;52.524;14.104;2023-12-22T11:02:43;98241.44;;;4.55;74.09
3122;BME280;1571;52.524;14.104;2023-12-22T11:05:11;98245.00;;;4.54;73.93
3122;BME280;1571;52.524;14.104;2023-12-22T11:07:41;98257.69;;;4.49;73.60
3122;BME280;1571;52.524;14.104;2023-12-22T11:10:18;98232.47;;;4.46;73.58
3122;BME280;1571;52.524;14.104;2023-12-22T11:12:47;98245.00;;;4.54;73.46
3122;BME280;1571;52.524;14.104;2023-12-22T11:15:17;98256.56;;;4.29;73.49
3122;BME280;1571;52.524;14.104;2023-12-22T11:17:50;98259.31;;;4.27;73.70
3122;BME280;1571;52.524;14.104;2023-12-22T11:20:22;98251.66;;;4.24;73.93
3122;BME280;1571;52.524;14.104;2023-12-22T11:22:53;98269.97;;;4.37;74.16
3122;BME280;1571;52.524;14.104;2023-12-22T11:25:23;98270.09;;;4.47;73.99
3122;BME280;1571;52.524;14.104;2023-12-22T11:27:55;98279.16;;;4.43;73.00
3122;BME280;1571;52.524;14.104;2023-12-22T11:30:24;98273.78;;;4.44;72.75
3122;BME280;1571;52.524;14.104;2023-12-22T11:32:56;98268.88;;;4.40;72.77
3122;BME280;1571;52.524;14.104;2023-12-22T11:35:25;98277.50;;;4.53;72.73
3122;BME280;1571;52.524;14.104;2023-12-22T11:38:00;98277.13;;;4.46;73.06
3122;BME280;1571;52.524;14.104;2023-12-22T11:40:29;98267.81;;;4.42;72.47
3122;BME280;1571;52.524;14.104;2023-12-22T11:42:58;98263.38;;;4.43;72.36
3122;BME280;1571;52.524;14.104;2023-12-22T11:45:30;98271.28;;;4.54;72.24
3122;BME280;1571;52.524;14.104;2023-12-22T11:48:06;98266.03;;;4.54;72.56
3122;BME280;1571;52.524;14.104;2023-12-22T11:50:36;98255.25;;;4.46;72.02
3122;BME280;1571;52.524;14.104;2023-12-22T11:53:19;98229.13;;;4.44;72.50
3122;BME280;1571;52.524;14.104;2023-12-22T11:56:00;98256.34;;;4.43;72.86
3122;BME280;1571;52.524;14.104;2023-12-22T11:58:34;98264.09;;;4.33;72.79
3122;BME280;1571;52.524;14.104;2023-12-22T12:01:05;98276.88;;;4.38;72.56
3122;BME280;1571;52.524;14.104;2023-12-22T12:03:37;98275.97;;;4.50;73.15
3122;BME280;1571;52.524;14.104;2023-12-22T12:06:14;98282.25;;;4.48;72.75
3122;BME280;1571;52.524;14.104;2023-12-22T12:08:44;98271.75;;;4.48;72.21
3122;BME280;1571;52.524;14.104;2023-12-22T12:11:12;98277.72;;;4.50;72.35
3122;BME280;1571;52.524;14.104;2023-12-22T12:13:43;98269.13;;;4.48;72.30
3122;BME280;1571;52.524;14.104;2023-12-22T12:16:13;98288.59;;;4.56;71.75
3122;BME280;1571;52.524;14.104;2023-12-22T12:18:42;98284.19;;;4.57;71.38
3122;BME280;1571;52.524;14.104;2023-12-22T12:21:12;98278.22;;;4.55;71.40
3122;BME280;1571;52.524;14.104;2023-12-22T12:23:41;98293.13;;;4.54;71.23
3122;BME280;1571;52.524;14.104;2023-12-22T12:26:10;98299.72;;;4.49;70.63
3122;BME280;1571;52.524;14.104;2023-12-22T12:28:44;98290.88;;;4.50;70.13
3122;BME280;1571;52.524;14.104;2023-12-22T12:31:14;98293.25;;;4.42;70.46
3122;BME280;1571;52.524;14.104;2023-12-22T12:33:44;98284.16;;;4.34;69.86
3122;BME280;1571;52.524;14.104;2023-12-22T12:36:13;98319.25;;;4.33;70.20
3122;BME280;1571;52.524;14.104;2023-12-22T12:38:45;98317.00;;;4.40;69.99
3122;BME280;1571;52.524;14.104;2023-12-22T12:41:17;98311.31;;;4.57;69.65
3122;BME280;1571;52.524;14.104;2023-12-22T12:43:51;98295.19;;;4.62;69.35
3122;BME280;1571;52.524;14.104;2023-12-22T12:46:21;98309.78;;;4.77;69.60
3122;BME280;1571;52.524;14.104;2023-12-22T12:49:02;98300.47;;;4.73;68.92
3122;BME280;1571;52.524;14.104;2023-12-22T12:51:35;98283.72;;;4.74;68.92
3122;BME280;1571;52.524;14.104;2023-12-22T12:54:05;98300.56;;;4.83;68.80
3122;BME280;1571;52.524;14.104;2023-12-22T12:56:38;98285.16;;;4.78;69.10
3122;BME280;1571;52.524;14.104;2023-12-22T12:59:08;98278.47;;;4.74;69.01
3122;BME280;1571;52.524;14.104;2023-12-22T13:01:40;98287.69;;;4.80;69.76
3122;BME280;1571;52.524;14.104;2023-12-22T13:04:11;98269.84;;;4.50;69.51
3122;BME280;1571;52.524;14.104;2023-12-22T13:06:44;98280.00;;;4.54;69.62
3122;BME280;1571;52.524;14.104;2023-12-22T13:09:12;98282.25;;;4.48;69.80
3122;BME280;1571;52.524;14.104;2023-12-22T13:11:42;98293.00;;;4.33;69.67
3122;BME280;1571;52.524;14.104;2023-12-22T13:14:11;98281.53;;;4.46;69.97
3122;BME280;1571;52.524;14.104;2023-12-22T13:16:39;98289.75;;;4.30;70.31
3122;BME280;1571;52.524;14.104;2023-12-22T13:19:08;98309.47;;;4.35;70.46
3122;BME280;1571;52.524;14.104;2023-12-22T13:21:38;98308.84;;;4.32;70.44
3122;BME280;1571;52.524;14.104;2023-12-22T13:24:10;98311.94;;;4.14;70.83
3122;BME280;1571;52.524;14.104;2023-12-22T13:26:40;98318.47;;;4.09;71.19
3122;BME280;1571;52.524;14.104;2023-12-22T13:29:09;98308.19;;;4.06;71.19
3122;BME280;1571;52.524;14.104;2023-12-22T13:31:40;98327.75;;;4.02;71.44
3122;BME280;1571;52.524;14.104;2023-12-22T13:34:10;98322.25;;;4.05;71.66